createdAt,value
2023-03-24T00:01:02.586Z,9.34
2023-03-24T00:06:01.843Z,9.36
2023-03-24T00:11:01.520Z,9.39
2023-03-24T00:15:59.285Z,9.43
2023-03-24T00:20:58.813Z,9.45
2023-03-24T00:26:06.132Z,9.41
2023-03-24T00:31:05.183Z,9.40
2023-03-24T00:36:03.825Z,9.42
2023-03-24T00:41:01.625Z,9.42
2023-03-24T00:46:03.979Z,9.43
2023-03-24T00:51:04.946Z,9.37
2023-03-24T00:56:01.579Z,9.34
2023-03-24T01:00:58.356Z,9.30
2023-03-24T01:06:02.945Z,9.26
2023-03-24T01:11:01.050Z,9.21
2023-03-24T01:15:58.471Z,9.18
2023-03-24T01:20:54.964Z,9.13
2023-03-24T01:25:52.416Z,9.16
2023-03-24T01:30:49.745Z,9.18
2023-03-24T01:35:46.301Z,9.12
2023-03-24T01:40:46.282Z,9.10
2023-03-24T01:45:54.399Z,9.13
2023-03-24T01:50:56.805Z,9.09
2023-03-24T01:55:54.655Z,9.08
2023-03-24T02:00:51.143Z,9.06
2023-03-24T02:05:50.581Z,9.06
2023-03-24T02:10:48.027Z,9.05
2023-03-24T02:16:38.817Z,9.04
2023-03-24T02:22:10.373Z,9.03
2023-03-24T02:27:29.952Z,9.01
2023-03-24T02:32:38.945Z,8.97
2023-03-24T02:38:13.075Z,8.95
2023-03-24T02:43:32.232Z,8.99
2023-03-24T02:48:49.132Z,8.98
2023-03-24T02:54:09.847Z,8.95
2023-03-24T02:59:09.876Z,8.96
2023-03-24T03:04:12.446Z,8.96
2023-03-24T03:09:14.435Z,8.93
2023-03-24T03:14:17.872Z,8.95
2023-03-24T03:19:19.439Z,8.93
2023-03-24T03:24:26.544Z,8.92
2023-03-24T03:29:29.009Z,8.95
2023-03-24T03:34:37.765Z,8.97
2023-03-24T03:39:47.965Z,9.01
2023-03-24T03:44:44.559Z,9.05
2023-03-24T03:49:41.267Z,9.12
2023-03-24T03:54:40.189Z,9.15
2023-03-24T03:59:38.877Z,9.23
2023-03-24T04:05:07.655Z,9.29
2023-03-24T04:10:30.934Z,9.39
2023-03-24T04:15:55.854Z,9.46
2023-03-24T04:21:19.987Z,9.55
2023-03-24T04:26:28.015Z,9.60
2023-03-24T04:31:53.818Z,9.64
2023-03-24T04:36:55.466Z,9.67
2023-03-24T04:41:53.431Z,9.68
2023-03-24T04:46:51.908Z,9.66
2023-03-24T04:51:48.293Z,9.68
2023-03-24T04:56:48.529Z,9.67
2023-03-24T05:01:51.584Z,9.69
2023-03-24T05:06:49.636Z,9.69
2023-03-24T05:11:46.122Z,9.73
2023-03-24T05:16:43.018Z,9.75
2023-03-24T05:21:39.827Z,9.78
2023-03-24T05:26:36.297Z,9.82
2023-03-24T05:31:35.585Z,9.87
2023-03-24T05:36:32.177Z,9.93
2023-03-24T05:41:28.612Z,10.01
2023-03-24T05:46:26.408Z,10.05
2023-03-24T05:51:23.403Z,10.09
2023-03-24T05:56:19.848Z,10.17
2023-03-24T06:01:18.237Z,10.17
2023-03-24T06:06:14.688Z,10.20
2023-03-24T06:11:11.885Z,10.22
2023-03-24T06:16:09.685Z,10.24
2023-03-24T06:21:07.099Z,10.25
2023-03-24T06:26:09.331Z,10.27
2023-03-24T06:31:06.429Z,10.28
2023-03-24T06:36:03.011Z,10.28
2023-03-24T06:41:03.574Z,10.32
2023-03-24T06:46:00.535Z,10.41
2023-03-24T06:50:56.985Z,10.47
2023-03-24T06:55:53.369Z,10.56
2023-03-24T07:00:50.303Z,10.60
2023-03-24T07:05:46.729Z,10.61
2023-03-24T07:10:43.622Z,10.60
2023-03-24T07:15:40.479Z,10.59
2023-03-24T07:20:37.815Z,10.39
2023-03-24T07:25:34.282Z,10.32
2023-03-24T07:30:39.778Z,10.36
2023-03-24T07:35:37.236Z,10.39
2023-03-24T07:40:35.372Z,10.38
2023-03-24T07:45:32.397Z,10.39
2023-03-24T07:50:30.641Z,10.26
2023-03-24T07:55:27.216Z,10.09
2023-03-24T08:00:25.011Z,10.14
2023-03-24T08:05:22.952Z,10.13
2023-03-24T08:10:21.394Z,10.06
2023-03-24T08:15:18.182Z,9.86
2023-03-24T08:20:15.185Z,10.00
2023-03-24T08:25:13.063Z,10.03
2023-03-24T08:30:10.774Z,10.24
2023-03-24T08:35:07.330Z,10.42
2023-03-24T08:40:05.344Z,10.32
2023-03-24T08:45:02.041Z,10.36
2023-03-24T08:49:58.716Z,10.45
2023-03-24T08:54:55.081Z,10.69
2023-03-24T08:59:51.653Z,10.63
2023-03-24T09:17:22.786Z,10.46
2023-03-24T09:22:19.332Z,10.46
2023-03-24T09:27:16.963Z,10.34
2023-03-24T09:32:13.450Z,10.26
2023-03-24T09:37:09.950Z,10.30
2023-03-24T09:42:08.965Z,10.38
2023-03-24T09:47:13.074Z,10.33
2023-03-24T09:52:24.616Z,10.58
2023-03-24T09:57:37.605Z,10.57
2023-03-24T10:02:34.128Z,10.57
2023-03-24T10:07:37.698Z,10.62
2023-03-24T10:12:39.602Z,10.68
2023-03-24T10:18:04.345Z,10.67
2023-03-24T10:23:07.774Z,11.34
2023-03-24T10:28:19.960Z,11.43
2023-03-24T10:33:16.520Z,11.48
2023-03-24T10:38:22.400Z,11.27
2023-03-24T10:43:19.304Z,11.46
2023-03-24T10:48:44.601Z,11.30
2023-03-24T10:53:41.762Z,11.48
2023-03-24T10:58:42.947Z,12.07
2023-03-24T11:03:39.885Z,12.68
2023-03-24T11:08:39.023Z,12.71
2023-03-24T11:13:35.742Z,12.41
2023-03-24T11:18:32.951Z,13.10
2023-03-24T11:23:35.154Z,13.37
2023-03-24T11:28:37.981Z,13.78
2023-03-24T11:33:43.112Z,13.39
2023-03-24T11:38:39.646Z,12.90
2023-03-24T11:43:36.094Z,12.95
2023-03-24T11:48:48.435Z,12.66
2023-03-24T11:53:50.742Z,12.49
2023-03-24T11:58:56.930Z,12.13
2023-03-24T12:04:35.965Z,12.00
2023-03-24T12:09:49.567Z,12.30
2023-03-24T12:15:27.271Z,13.21
2023-03-24T12:20:32.174Z,13.82
2023-03-24T12:25:39.642Z,13.18
2023-03-24T12:30:41.728Z,12.43
2023-03-24T12:35:49.935Z,14.60
2023-03-24T12:40:49.551Z,12.98
2023-03-24T12:45:55.496Z,12.40
2023-03-24T12:51:11.523Z,12.19
2023-03-24T12:56:33.230Z,13.93
2023-03-24T13:01:35.755Z,15.56
2023-03-24T13:06:59.174Z,17.73
2023-03-24T13:12:03.919Z,18.57
2023-03-24T13:17:06.051Z,16.50
2023-03-24T13:22:06.573Z,18.63
2023-03-24T13:27:20.564Z,18.67
2023-03-24T13:32:25.849Z,19.03
2023-03-24T13:37:32.990Z,16.72
2023-03-24T13:42:42.196Z,17.56
2023-03-24T13:47:57.868Z,18.04
2023-03-24T13:52:55.297Z,18.13
2023-03-24T13:57:58.182Z,18.70
2023-03-24T14:03:11.958Z,16.68
2023-03-24T14:08:08.352Z,18.29
2023-03-24T14:13:19.598Z,18.37
2023-03-24T14:18:16.407Z,18.55
2023-03-24T14:23:29.081Z,18.77
2023-03-24T14:28:31.703Z,18.99
2023-03-24T14:33:28.873Z,17.93
2023-03-24T14:38:29.241Z,17.41
2023-03-24T14:43:41.396Z,17.90
2023-03-24T14:48:41.197Z,18.84
2023-03-24T14:53:38.466Z,17.98
2023-03-24T14:58:39.053Z,18.08
2023-03-24T15:03:53.832Z,17.55
2023-03-24T15:08:51.334Z,18.84
2023-03-24T15:13:55.084Z,18.48
2023-03-24T15:19:02.445Z,17.24
2023-03-24T15:24:01.152Z,16.14
2023-03-24T15:29:02.106Z,16.34
2023-03-24T15:34:33.858Z,16.77
2023-03-24T15:39:34.618Z,15.65
2023-03-24T15:44:34.595Z,15.40
2023-03-24T15:49:35.601Z,14.66
2023-03-24T15:54:40.606Z,14.62
2023-03-24T15:59:37.423Z,15.10
2023-03-24T16:04:33.869Z,16.17
2023-03-24T16:09:38.827Z,15.59
2023-03-24T16:14:35.878Z,15.38
2023-03-24T16:19:32.954Z,14.55
2023-03-24T16:24:29.603Z,14.35
2023-03-24T16:29:26.263Z,14.07
2023-03-24T16:34:23.717Z,13.91
2023-03-24T16:39:23.882Z,13.83
2023-03-24T16:44:20.930Z,13.49
2023-03-24T16:49:18.536Z,13.41
2023-03-24T16:54:15.524Z,13.17
2023-03-24T16:59:14.728Z,13.06
2023-03-24T17:04:19.093Z,12.98
2023-03-24T17:09:15.581Z,12.82
2023-03-24T17:14:12.405Z,12.75
2023-03-24T17:19:13.808Z,12.69
2023-03-24T17:24:12.941Z,12.73
2023-03-24T17:29:12.009Z,12.63
2023-03-24T17:34:21.628Z,12.36
2023-03-24T17:39:20.684Z,12.19
2023-03-24T17:44:17.476Z,11.99
2023-03-24T17:49:15.630Z,11.76
2023-03-24T17:54:13.499Z,11.69
2023-03-24T17:59:10.728Z,11.56
2023-03-24T18:04:07.956Z,11.52
2023-03-24T18:09:04.903Z,11.42
2023-03-24T18:14:03.247Z,11.21
2023-03-24T18:19:01.826Z,11.14
2023-03-24T18:23:58.610Z,11.05
2023-03-24T18:28:55.539Z,10.99
2023-03-24T18:33:53.800Z,10.85
2023-03-24T18:38:50.609Z,10.83
2023-03-24T18:43:48.103Z,10.70
2023-03-24T18:48:46.644Z,10.65
2023-03-24T18:53:43.443Z,10.61
2023-03-24T18:58:43.283Z,10.58
2023-03-24T19:03:42.135Z,10.48
2023-03-24T19:08:42.223Z,10.38
2023-03-24T19:13:42.103Z,10.32
2023-03-24T19:18:38.626Z,10.25
2023-03-24T19:23:36.480Z,10.19
2023-03-24T19:28:36.259Z,10.12
2023-03-24T19:33:35.939Z,10.07
2023-03-24T19:38:33.605Z,9.99
2023-03-24T19:43:30.253Z,9.93
2023-03-24T19:48:27.339Z,9.95
2023-03-24T19:53:25.099Z,9.88
2023-03-24T19:58:21.801Z,9.77
2023-03-24T20:03:18.510Z,9.77
2023-03-24T20:08:19.422Z,9.66
2023-03-24T20:13:16.053Z,9.63
2023-03-24T20:18:12.876Z,9.58
2023-03-24T20:23:10.577Z,9.50
2023-03-24T20:28:07.376Z,9.48
2023-03-24T20:33:04.190Z,9.41
2023-03-24T20:38:01.161Z,9.45
2023-03-24T20:42:58.098Z,9.55
2023-03-24T20:47:55.084Z,9.55
2023-03-24T20:52:51.986Z,9.44
2023-03-24T20:57:48.688Z,9.26
2023-03-24T21:02:45.731Z,9.18
2023-03-24T21:07:43.974Z,9.10
2023-03-24T21:12:53.006Z,9.04
2023-03-24T21:17:51.746Z,8.96
2023-03-24T21:22:55.848Z,8.94
2023-03-24T21:27:53.258Z,8.87
2023-03-24T21:32:51.710Z,8.82
2023-03-24T21:37:50.173Z,8.78
2023-03-24T21:42:50.254Z,8.75
2023-03-24T21:47:49.498Z,8.71
2023-03-24T21:52:47.299Z,8.77
2023-03-24T21:57:45.367Z,8.70
2023-03-24T22:02:45.323Z,8.77
2023-03-24T22:07:42.363Z,8.69
2023-03-24T22:12:39.304Z,8.73
2023-03-24T22:17:39.546Z,8.68
2023-03-24T22:22:40.079Z,8.68
2023-03-24T22:27:39.905Z,8.64
2023-03-24T22:32:39.104Z,8.55
2023-03-24T22:37:36.283Z,8.48
2023-03-24T22:42:33.668Z,8.47
2023-03-24T22:47:31.089Z,8.41
2023-03-24T22:52:28.222Z,8.50
2023-03-24T22:57:24.705Z,8.73
2023-03-24T23:02:24.519Z,8.90
2023-03-24T23:07:22.158Z,8.89
2023-03-24T23:12:18.538Z,8.90
2023-03-24T23:17:15.739Z,8.98
2023-03-24T23:22:12.177Z,8.93
2023-03-24T23:27:08.651Z,8.75
2023-03-24T23:32:05.666Z,8.85
2023-03-24T23:37:04.943Z,8.90
2023-03-24T23:42:01.534Z,8.96
2023-03-24T23:46:57.937Z,8.98
2023-03-24T23:51:54.518Z,9.06
2023-03-24T23:56:51.340Z,8.92
